الصفحة الرئيسية
METAR-TAF:

METAR-TAF

مطار :

سان ديني, ريونيون

دائرة عرض: 20-53S, خط طول: 055-31E, ارتفاع: 21 متر

مراقبة الطقس الحالي

تاريخ ووقت الإصدار 27 دقيقة قبل الساعة 17:00UTC
ريح 11 عقدة من الشرق/الجنوب الشرقي
درجة الحرارة 22°درجة مئوية
الرطوبة 78%
ضغط 1022 hPa
الرؤية 10 كم أو أكثر

METAR: FMEE 051700Z AUTO 12011KT 9999 OVC037/// 22/18 Q1022 NOSIG

زمن: 21:27 (17:27 UTC)

توقعات

تاريخ ووقت الإصدار 6ساعات و 27 دقيقة قبل الساعة 11:00UTC
التوقعات صالحة من05 الساعة 12 UTC إلى 06 الساعة 18 UTC
ريح 15 عقدة من الشرق/الجنوب الشرقي
الرؤية 10 كم أو أكثر
غيوم قليلة على ارتفاع 2500 قدم
مؤقت
من 06 الساعة 06 UTC إلى 06 الساعة 12 UTC
ريح 20 عقدة من الشرق/الجنوب الشرقي تتزايد حتى 30 عقدة

TAF: FMEE 051100Z 0512/0618 12015KT 9999 FEW025 TEMPO 0606/0612 12020G30KT

أرصاد الطقس والتوقعات من أكثر من 4000 مطار (تقارير الطقس للمطار METAR والتنبؤ بالطقس بالمطارTAF).

المحطات المتاحة هي النقط الصفراء والحمراء على الخريطة.

حرك المؤشر فوق النقطة لمعرفة اسم المحطة.

ثم انقر لمعرفة أرصاد وتوقعات الطقس.

لتغيير الخارطة: اضغط على الأزرار الخضراء مع رمز الصليب الأسود للتكبير. على الزر الأخضر مع شرطة للتصغير، أو على الأسهم الخضراء للخرائط المجاورة.


METAR-TAF: